Aviation Digital Data Service (ADDS)

Output produced by METARs form (1645 UTC 30 March 2017)
found at http://aviationweather.gov/adds/metars/
 
KISP 301602Z 3016/3112 03006KT P6SM BKN150 
     FM301900 20008KT P6SM FEW060 BKN250 
     FM310000 VRB04KT P6SM BKN100 
     FM310600 VRB04KT P6SM BKN030 
     FM311100 11008KT 5SM -RA BKN010